createdAt,value
2023-04-18T00:01:59.203Z,2.80
2023-04-18T00:04:29.195Z,2.47
2023-04-18T00:06:58.214Z,2.40
2023-04-18T00:09:26.766Z,2.20
2023-04-18T00:11:55.432Z,2.77
2023-04-18T00:14:24.582Z,2.83
2023-04-18T00:16:53.888Z,3.08
2023-04-18T00:19:22.667Z,2.45
2023-04-18T00:21:53.103Z,2.50
2023-04-18T00:24:21.890Z,2.60
2023-04-18T00:26:50.397Z,3.00
2023-04-18T00:29:18.987Z,3.00
2023-04-18T00:31:47.475Z,2.92
2023-04-18T00:34:16.255Z,3.55
2023-04-18T00:36:47.048Z,3.00
2023-04-18T00:39:17.527Z,2.62
2023-04-18T00:41:46.246Z,2.02
2023-04-18T00:44:14.770Z,2.27
2023-04-18T00:46:44.175Z,2.02
2023-04-18T00:49:12.633Z,2.80
2023-04-18T00:51:41.511Z,2.70
2023-04-18T00:54:12.415Z,2.20
2023-04-18T00:56:41.336Z,2.10
2023-04-18T00:59:11.197Z,2.33
2023-04-18T01:01:42.998Z,2.22
2023-04-18T01:04:12.114Z,2.25
2023-04-18T01:06:43.842Z,2.10
2023-04-18T01:09:13.609Z,2.33
2023-04-18T01:11:42.998Z,2.15
2023-04-18T01:14:12.924Z,2.08
2023-04-18T01:16:42.342Z,2.58
2023-04-18T01:19:14.084Z,2.20
2023-04-18T01:21:43.484Z,2.62
2023-04-18T01:24:15.734Z,2.00
2023-04-18T01:26:47.316Z,2.30
2023-04-18T01:29:15.714Z,2.05
2023-04-18T01:31:44.489Z,2.00
2023-04-18T01:34:17.952Z,2.70
2023-04-18T01:36:46.392Z,2.60
2023-04-18T01:39:15.041Z,2.42
2023-04-18T01:41:43.693Z,2.50
2023-04-18T01:44:12.325Z,2.45
2023-04-18T01:46:41.234Z,2.30
2023-04-18T01:49:10.074Z,2.30
2023-04-18T01:51:39.381Z,2.60
2023-04-18T01:54:07.880Z,3.27
2023-04-18T01:56:37.168Z,2.42
2023-04-18T01:59:05.721Z,2.40
2023-04-18T02:01:34.176Z,2.60
2023-04-18T02:04:02.768Z,3.08
2023-04-18T02:06:32.556Z,2.95
2023-04-18T02:09:01.590Z,3.10
2023-04-18T02:11:31.483Z,3.22
2023-04-18T02:14:00.867Z,3.10
2023-04-18T02:16:29.665Z,3.02
2023-04-18T02:18:58.163Z,2.90
2023-04-18T02:21:27.269Z,3.10
2023-04-18T02:23:56.044Z,2.70
2023-04-18T02:26:24.930Z,2.62
2023-04-18T02:28:53.570Z,2.98
2023-04-18T02:31:23.410Z,2.45
2023-04-18T02:33:53.289Z,2.58
2023-04-18T02:36:23.255Z,2.08
2023-04-18T02:38:51.907Z,2.70
2023-04-18T02:41:23.339Z,2.50
2023-04-18T02:43:51.871Z,2.65
2023-04-18T02:46:21.010Z,2.67
2023-04-18T02:48:50.031Z,2.40
2023-04-18T02:51:19.703Z,2.75
2023-04-18T02:53:48.351Z,2.50
2023-04-18T02:56:18.444Z,2.60
2023-04-18T02:59:06.321Z,2.35
2023-04-18T03:01:39.756Z,2.33
2023-04-18T03:04:12.511Z,2.65
2023-04-18T03:06:43.149Z,2.77
2023-04-18T03:09:16.905Z,2.72
2023-04-18T03:11:49.233Z,2.70
2023-04-18T03:14:19.751Z,2.60
2023-04-18T03:16:53.109Z,2.85
2023-04-18T03:19:23.216Z,2.50
2023-04-18T03:21:53.155Z,2.65
2023-04-18T03:24:21.561Z,2.95
2023-04-18T03:26:52.023Z,2.75
2023-04-18T03:29:22.649Z,2.87
2023-04-18T03:31:52.533Z,2.77
2023-04-18T03:34:21.004Z,2.83
2023-04-18T03:36:50.352Z,2.65
2023-04-18T03:39:20.909Z,3.12
2023-04-18T03:41:49.879Z,2.77
2023-04-18T03:44:18.956Z,2.75
2023-04-18T03:46:47.547Z,3.00
2023-04-18T03:49:16.318Z,3.02
2023-04-18T03:51:47.640Z,2.72
2023-04-18T03:54:16.826Z,2.90
2023-04-18T03:56:45.783Z,3.05
2023-04-18T03:59:16.028Z,2.87
2023-04-18T04:01:46.729Z,2.52
2023-04-18T04:04:16.295Z,3.20
2023-04-18T04:06:45.272Z,2.37
2023-04-18T04:09:16.542Z,3.10
2023-04-18T04:11:45.890Z,2.77
2023-04-18T04:14:15.148Z,2.70
2023-04-18T04:16:46.060Z,2.90
2023-04-18T04:19:16.593Z,3.25
2023-04-18T04:21:47.333Z,2.85
2023-04-18T04:24:16.799Z,2.80
2023-04-18T04:26:48.482Z,3.30
2023-04-18T04:29:18.724Z,2.83
2023-04-18T04:31:48.403Z,2.83
2023-04-18T04:34:19.545Z,3.10
2023-04-18T04:36:48.686Z,3.27
2023-04-18T04:39:17.387Z,2.87
2023-04-18T04:41:53.796Z,3.22
2023-04-18T04:44:25.105Z,3.87
2023-04-18T04:46:54.176Z,3.20
2023-04-18T04:49:24.587Z,3.00
2023-04-18T04:51:54.795Z,3.10
2023-04-18T04:54:23.463Z,3.27
2023-04-18T04:56:52.185Z,3.42
2023-04-18T04:59:23.021Z,3.20
2023-04-18T05:01:51.832Z,3.30
2023-04-18T05:04:21.777Z,3.55
2023-04-18T05:06:50.634Z,3.40
2023-04-18T05:09:19.382Z,3.30
2023-04-18T05:11:49.466Z,3.10
2023-04-18T05:14:20.411Z,3.58
2023-04-18T05:16:48.985Z,3.77
2023-04-18T05:19:17.632Z,3.22
2023-04-18T05:21:46.298Z,3.30
2023-04-18T05:24:15.180Z,3.60
2023-04-18T05:26:46.038Z,3.30
2023-04-18T05:29:14.898Z,3.80
2023-04-18T05:31:43.483Z,4.05
2023-04-18T05:34:12.416Z,3.40
2023-04-18T05:36:41.417Z,3.33
2023-04-18T05:39:10.064Z,3.42
2023-04-18T05:41:39.218Z,3.70
2023-04-18T05:44:08.168Z,3.58
2023-04-18T05:46:36.819Z,6.03
2023-04-18T05:49:05.426Z,4.35
2023-04-18T05:51:34.038Z,3.22
2023-04-18T05:54:02.861Z,3.35
2023-04-18T05:56:31.582Z,3.47
2023-04-18T05:59:00.157Z,3.10
2023-04-18T06:01:28.971Z,3.75
2023-04-18T06:03:57.727Z,3.27
2023-04-18T06:06:26.338Z,3.35
2023-04-18T06:08:55.398Z,3.58
2023-04-18T06:11:24.889Z,3.72
2023-04-18T06:13:55.405Z,2.90
2023-04-18T06:16:24.078Z,3.42
2023-04-18T06:18:53.135Z,3.27
2023-04-18T06:21:22.126Z,3.08
2023-04-18T06:23:50.674Z,2.95
2023-04-18T06:26:19.053Z,2.87
2023-04-18T06:28:47.775Z,3.22
2023-04-18T06:31:16.592Z,3.25
2023-04-18T06:33:46.203Z,3.27
2023-04-18T06:36:15.006Z,2.85
2023-04-18T06:38:43.881Z,3.10
2023-04-18T06:41:15.728Z,3.52
2023-04-18T06:43:55.744Z,3.80
2023-04-18T06:46:14.914Z,3.40
2023-04-18T06:48:43.774Z,3.52
2023-04-18T06:51:12.382Z,3.30
2023-04-18T06:53:40.828Z,3.35
2023-04-18T06:56:09.438Z,3.25
2023-04-18T06:58:37.895Z,3.10
2023-04-18T07:01:06.336Z,3.10
2023-04-18T07:03:35.043Z,3.45
2023-04-18T07:06:04.516Z,2.98
2023-04-18T07:08:34.290Z,3.10
2023-04-18T07:11:02.797Z,2.90
2023-04-18T07:13:31.305Z,2.62
2023-04-18T07:16:00.318Z,3.22
2023-04-18T07:18:37.367Z,2.90
2023-04-18T07:21:00.160Z,2.52
2023-04-18T07:23:28.677Z,3.33
2023-04-18T07:25:58.964Z,3.10
2023-04-18T07:28:29.366Z,2.60
2023-04-18T07:30:58.650Z,3.45
2023-04-18T07:33:29.389Z,2.95
2023-04-18T07:35:57.902Z,3.40
2023-04-18T07:38:28.221Z,2.77
2023-04-18T07:40:58.269Z,2.98
2023-04-18T07:43:26.682Z,3.15
2023-04-18T07:45:55.373Z,2.75
2023-04-18T07:48:25.713Z,3.35
2023-04-18T07:50:54.215Z,2.67
2023-04-18T07:53:23.278Z,2.80
2023-04-18T07:55:51.863Z,2.72
2023-04-18T07:58:21.232Z,2.72
2023-04-18T08:00:50.258Z,2.70
2023-04-18T08:03:18.888Z,2.85
2023-04-18T08:05:48.598Z,2.70
2023-04-18T08:08:17.369Z,2.62
2023-04-18T08:10:47.607Z,2.67
2023-04-18T08:13:17.653Z,3.00
2023-04-18T08:15:46.947Z,2.85
2023-04-18T08:18:15.593Z,3.90
2023-04-18T08:20:45.811Z,3.05
2023-04-18T08:23:14.578Z,2.40
2023-04-18T08:25:43.477Z,2.87
2023-04-18T08:28:13.322Z,2.45
2023-04-18T08:30:42.781Z,2.42
2023-04-18T08:33:11.609Z,2.30
2023-04-18T08:35:41.346Z,2.95
2023-04-18T08:38:10.164Z,2.30
2023-04-18T08:40:38.729Z,2.37
2023-04-18T08:43:11.712Z,2.50
2023-04-18T08:45:43.909Z,2.67
2023-04-18T08:48:14.962Z,3.08
2023-04-18T08:50:43.813Z,2.40
2023-04-18T08:53:12.122Z,2.87
2023-04-18T08:55:41.673Z,2.55
2023-04-18T08:58:12.077Z,2.30
2023-04-18T09:00:40.590Z,2.50
2023-04-18T09:03:10.393Z,2.72
2023-04-18T09:05:39.986Z,3.08
2023-04-18T09:08:26.030Z,2.40
2023-04-18T09:10:54.650Z,2.40
2023-04-18T09:13:40.449Z,2.77
2023-04-18T09:16:08.938Z,2.45
2023-04-18T09:18:39.080Z,3.00
2023-04-18T09:21:21.415Z,2.40
2023-04-18T09:23:50.085Z,2.10
2023-04-18T09:26:34.500Z,2.75
2023-04-18T09:29:02.858Z,2.80
2023-04-18T09:31:32.223Z,2.50
2023-04-18T09:34:02.679Z,2.75
2023-04-18T09:36:32.163Z,2.70
2023-04-18T09:39:01.699Z,2.42
2023-04-18T09:41:31.054Z,2.50
2023-04-18T09:44:15.514Z,2.27
2023-04-18T09:46:47.340Z,2.37
2023-04-18T09:49:17.074Z,2.30
2023-04-18T09:51:46.989Z,2.30
2023-04-18T09:54:20.197Z,1.80
2023-04-18T09:56:53.088Z,1.92
2023-04-18T09:59:33.479Z,2.12
2023-04-18T10:02:03.564Z,2.33
2023-04-18T10:04:32.561Z,2.10
2023-04-18T10:07:01.364Z,1.80
2023-04-18T10:09:32.159Z,1.70
2023-04-18T10:12:02.224Z,1.80
2023-04-18T10:14:31.003Z,1.80
2023-04-18T10:16:59.915Z,2.08
2023-04-18T10:19:29.792Z,2.02
2023-04-18T10:22:00.530Z,2.50
2023-04-18T10:24:54.161Z,2.08
2023-04-18T10:28:01.957Z,2.40
2023-04-18T10:30:45.714Z,2.95
2023-04-18T10:33:33.390Z,2.58
2023-04-18T10:36:14.978Z,2.50
2023-04-18T10:38:50.842Z,1.67
2023-04-18T10:41:32.357Z,2.37
2023-04-18T10:44:15.926Z,1.77
2023-04-18T10:47:03.547Z,1.70
2023-04-18T10:49:33.060Z,1.60
2023-04-18T10:52:02.449Z,1.87
2023-04-18T10:55:00.740Z,2.47
2023-04-18T10:57:41.991Z,2.27
2023-04-18T11:00:12.532Z,1.92
2023-04-18T11:02:43.466Z,1.65
2023-04-18T11:05:12.051Z,1.92
2023-04-18T11:07:47.760Z,2.75
2023-04-18T11:10:25.878Z,2.27
2023-04-18T11:12:55.458Z,1.70
2023-04-18T11:15:25.348Z,2.10
2023-04-18T11:18:04.490Z,2.12
2023-04-18T11:20:39.687Z,2.50
2023-04-18T11:23:23.704Z,1.90
2023-04-18T11:25:54.027Z,1.35
2023-04-18T11:28:24.383Z,1.75
2023-04-18T11:31:00.426Z,2.10
2023-04-18T11:33:29.786Z,1.90
2023-04-18T11:35:59.253Z,2.72
2023-04-18T11:38:30.383Z,3.20
2023-04-18T11:41:03.645Z,3.85
2023-04-18T11:43:33.675Z,3.22
2023-04-18T11:46:02.275Z,2.70
2023-04-18T11:48:41.153Z,2.12
2023-04-18T11:51:30.897Z,2.77
2023-04-18T11:53:59.967Z,2.80
2023-04-18T11:56:29.722Z,3.10
2023-04-18T11:58:58.175Z,4.53
2023-04-18T12:01:27.637Z,2.95
2023-04-18T12:04:04.153Z,3.50
2023-04-18T12:06:53.353Z,3.87
2023-04-18T12:09:24.399Z,3.33
2023-04-18T12:12:00.681Z,3.27
2023-04-18T12:14:29.930Z,3.27
2023-04-18T12:16:58.985Z,3.98
2023-04-18T12:19:28.202Z,3.30
2023-04-18T12:22:04.871Z,3.87
2023-04-18T12:24:33.652Z,3.05
2023-04-18T12:27:03.203Z,4.65
2023-04-18T12:29:32.137Z,4.65
2023-04-18T12:32:00.974Z,3.50
2023-04-18T12:34:29.734Z,3.87
2023-04-18T12:36:58.753Z,3.22
2023-04-18T12:39:27.349Z,3.37
2023-04-18T12:41:55.857Z,4.30
2023-04-18T12:44:24.563Z,4.50
2023-04-18T12:46:53.265Z,3.90
2023-04-18T12:49:22.540Z,4.58
2023-04-18T12:51:51.234Z,4.30
2023-04-18T12:54:20.379Z,3.90
2023-04-18T12:56:49.255Z,3.35
2023-04-18T12:59:18.296Z,3.85
2023-04-18T13:01:46.852Z,4.67
2023-04-18T13:04:16.597Z,4.35
2023-04-18T13:06:46.643Z,4.17
2023-04-18T13:09:16.331Z,5.15
2023-04-18T13:11:45.323Z,4.65
2023-04-18T13:14:14.252Z,5.03
2023-04-18T13:16:44.028Z,5.20
2023-04-18T13:19:13.214Z,4.20
2023-04-18T13:21:42.099Z,5.08
2023-04-18T13:24:13.308Z,4.90
2023-04-18T13:26:41.909Z,5.12
2023-04-18T13:29:10.530Z,5.67
2023-04-18T13:31:38.986Z,7.67
2023-04-18T13:34:07.416Z,5.10
2023-04-18T13:36:36.018Z,5.83
2023-04-18T13:39:05.360Z,5.10
2023-04-18T13:41:34.920Z,6.10
2023-04-18T13:44:03.730Z,5.50
2023-04-18T13:46:32.970Z,5.15
2023-04-18T13:49:03.618Z,5.95
2023-04-18T13:51:32.849Z,6.05
2023-04-18T13:54:01.681Z,5.47
2023-04-18T13:56:36.131Z,5.33
2023-04-18T13:59:06.089Z,4.60
2023-04-18T14:01:34.682Z,3.80
2023-04-18T14:04:03.637Z,4.17
2023-04-18T14:06:33.069Z,4.35
2023-04-18T14:09:01.653Z,3.37
2023-04-18T14:11:38.431Z,3.77
2023-04-18T14:14:14.405Z,3.10
2023-04-18T14:16:44.168Z,3.00
2023-04-18T14:19:12.933Z,3.22
2023-04-18T14:21:43.542Z,3.25
2023-04-18T14:24:16.796Z,3.45
2023-04-18T14:26:48.199Z,2.98
2023-04-18T14:29:16.917Z,2.77
2023-04-18T14:31:46.090Z,3.50
2023-04-18T14:34:14.537Z,2.33
2023-04-18T14:36:43.040Z,2.17
2023-04-18T14:39:12.902Z,2.10
2023-04-18T14:41:41.479Z,2.10
2023-04-18T14:44:10.726Z,1.70
2023-04-18T14:46:39.239Z,1.52
2023-04-18T14:49:07.786Z,2.17
2023-04-18T14:51:36.862Z,1.77
2023-04-18T14:54:05.315Z,1.90
2023-04-18T14:56:34.281Z,1.57
2023-04-18T14:59:03.542Z,1.60
2023-04-18T15:01:33.363Z,1.40
2023-04-18T15:04:03.990Z,4.53
2023-04-18T15:06:33.594Z,1.50
2023-04-18T15:09:03.527Z,1.60
2023-04-18T15:11:32.024Z,1.75
2023-04-18T15:14:00.831Z,2.20
2023-04-18T15:16:30.870Z,1.72
2023-04-18T15:19:00.025Z,2.00
2023-04-18T15:21:29.946Z,2.20
2023-04-18T15:24:00.158Z,2.08
2023-04-18T15:26:31.060Z,1.95
2023-04-18T15:29:03.233Z,1.85
2023-04-18T15:31:32.164Z,1.90
2023-04-18T15:34:01.360Z,2.05
2023-04-18T15:36:31.342Z,2.45
2023-04-18T15:38:59.741Z,3.30
2023-04-18T15:41:28.110Z,1.85
2023-04-18T15:43:56.478Z,2.33
2023-04-18T15:46:25.074Z,2.20
2023-04-18T15:48:54.217Z,1.67
2023-04-18T15:51:24.474Z,1.80
2023-04-18T15:53:53.006Z,2.00
2023-04-18T15:56:21.497Z,1.55
2023-04-18T15:58:50.311Z,1.67
2023-04-18T16:01:19.027Z,1.80
2023-04-18T16:03:48.263Z,2.02
2023-04-18T16:06:21.052Z,2.12
2023-04-18T16:08:50.482Z,1.82
2023-04-18T16:11:20.179Z,2.47
2023-04-18T16:13:48.711Z,1.70
2023-04-18T16:16:17.530Z,2.20
2023-04-18T16:18:46.620Z,1.82
2023-04-18T16:21:16.050Z,2.00
2023-04-18T16:23:44.702Z,1.70
2023-04-18T16:26:13.714Z,2.98
2023-04-18T16:28:42.527Z,1.98
2023-04-18T16:31:11.269Z,1.37
2023-04-18T16:33:40.301Z,1.92
2023-04-18T16:36:09.733Z,1.40
2023-04-18T16:38:38.296Z,1.52
2023-04-18T16:41:06.777Z,1.70
2023-04-18T16:43:37.217Z,1.55
2023-04-18T16:46:06.459Z,1.45
2023-04-18T16:48:37.096Z,1.90
2023-04-18T16:51:06.808Z,1.30
2023-04-18T16:53:36.665Z,1.42
2023-04-18T16:56:07.780Z,1.50
2023-04-18T16:58:37.510Z,1.60
2023-04-18T17:01:07.816Z,1.55
2023-04-18T17:03:37.221Z,1.42
2023-04-18T17:06:07.325Z,1.92
2023-04-18T17:08:37.062Z,1.72
2023-04-18T17:11:06.023Z,1.65
2023-04-18T17:13:36.017Z,1.62
2023-04-18T17:16:06.693Z,1.72
2023-04-18T17:18:35.322Z,1.70
2023-04-18T17:21:05.148Z,1.72
2023-04-18T17:23:33.863Z,1.82
2023-04-18T17:26:03.005Z,2.00
2023-04-18T17:28:31.968Z,1.95
2023-04-18T17:31:01.769Z,1.45
2023-04-18T17:33:31.601Z,1.45
2023-04-18T17:36:00.177Z,1.60
2023-04-18T17:38:28.736Z,1.75
2023-04-18T17:41:00.876Z,1.80
2023-04-18T17:43:29.487Z,1.65
2023-04-18T17:45:59.910Z,1.47
2023-04-18T17:48:28.556Z,1.42
2023-04-18T17:50:58.652Z,1.82
2023-04-18T17:53:27.375Z,2.35
2023-04-18T17:55:57.819Z,2.10
2023-04-18T17:58:26.600Z,1.98
2023-04-18T18:00:56.061Z,1.82
2023-04-18T18:03:25.631Z,2.20
2023-04-18T18:05:56.061Z,2.50
2023-04-18T18:08:25.519Z,2.42
2023-04-18T18:10:54.294Z,2.45
2023-04-18T18:13:23.057Z,2.50
2023-04-18T18:15:51.544Z,1.95
2023-04-18T18:18:23.103Z,2.35
2023-04-18T18:20:52.016Z,2.45
2023-04-18T18:23:20.738Z,2.20
2023-04-18T18:25:50.658Z,2.12
2023-04-18T18:28:19.699Z,2.72
2023-04-18T18:30:49.120Z,2.70
2023-04-18T18:33:17.702Z,2.65
2023-04-18T18:35:47.030Z,1.70
2023-04-18T18:38:15.596Z,2.02
2023-04-18T18:40:44.282Z,2.00
2023-04-18T18:43:13.238Z,2.00
2023-04-18T18:45:42.346Z,2.15
2023-04-18T18:48:11.266Z,2.12
2023-04-18T18:50:41.930Z,2.40
2023-04-18T18:53:10.575Z,1.85
2023-04-18T18:55:39.348Z,1.98
2023-04-18T18:58:08.090Z,2.33
2023-04-18T19:00:36.875Z,2.02
2023-04-18T19:03:08.459Z,2.42
2023-04-18T19:05:37.722Z,2.12
2023-04-18T19:08:06.282Z,2.02
2023-04-18T19:10:35.204Z,2.10
2023-04-18T19:13:04.705Z,2.20
2023-04-18T19:15:33.747Z,2.02
2023-04-18T19:18:02.316Z,2.52
2023-04-18T19:20:30.975Z,2.40
2023-04-18T19:22:59.501Z,2.30
2023-04-18T19:25:29.799Z,2.10
2023-04-18T19:27:58.429Z,2.95
2023-04-18T19:30:28.182Z,2.37
2023-04-18T19:32:56.896Z,2.47
2023-04-18T19:35:25.308Z,2.40
2023-04-18T19:37:55.889Z,2.30
2023-04-18T19:40:26.380Z,2.35
2023-04-18T19:42:54.791Z,2.77
2023-04-18T19:45:24.107Z,2.52
2023-04-18T19:47:52.929Z,2.90
2023-04-18T19:50:22.484Z,3.12
2023-04-18T19:52:52.109Z,2.70
2023-04-18T19:55:21.425Z,3.15
2023-04-18T19:57:57.740Z,3.00
2023-04-18T20:00:28.076Z,3.20
2023-04-18T20:02:58.348Z,3.55
2023-04-18T20:05:27.172Z,3.40
2023-04-18T20:07:56.047Z,3.58
2023-04-18T20:10:24.963Z,3.33
2023-04-18T20:12:53.783Z,3.20
2023-04-18T20:15:22.553Z,2.72
2023-04-18T20:17:51.230Z,3.10
2023-04-18T20:20:20.032Z,3.60
2023-04-18T20:22:48.956Z,3.17
2023-04-18T20:32:08.066Z,3.17
2023-04-18T20:34:38.246Z,3.10
2023-04-18T20:37:07.202Z,3.00
2023-04-18T20:39:38.258Z,2.90
2023-04-18T20:42:07.003Z,2.80
2023-04-18T20:44:36.668Z,2.60
2023-04-18T20:47:06.112Z,2.75
2023-04-18T20:49:36.532Z,2.62
2023-04-18T20:52:08.338Z,3.12
2023-04-18T20:54:37.288Z,2.77
2023-04-18T20:57:08.565Z,3.22
2023-04-18T20:59:37.295Z,3.40
2023-04-18T21:02:07.978Z,3.25
2023-04-18T21:04:37.016Z,3.00
2023-04-18T21:07:06.287Z,3.20
2023-04-18T21:09:36.895Z,3.02
2023-04-18T21:12:06.204Z,3.20
2023-04-18T21:14:35.111Z,3.00
2023-04-18T21:17:04.227Z,2.33
2023-04-18T21:19:33.233Z,2.42
2023-04-18T21:22:02.597Z,2.40
2023-04-18T21:24:31.411Z,2.20
2023-04-18T21:27:00.249Z,2.40
2023-04-18T21:29:29.869Z,2.27
2023-04-18T21:32:00.578Z,2.20
2023-04-18T21:34:29.414Z,2.30
2023-04-18T21:36:58.285Z,1.95
2023-04-18T21:39:27.553Z,1.90
2023-04-18T21:41:57.197Z,2.05
2023-04-18T21:44:26.026Z,2.00
2023-04-18T21:46:56.197Z,1.80
2023-04-18T21:49:25.350Z,2.20
2023-04-18T21:51:54.968Z,1.82
2023-04-18T21:54:25.538Z,1.70
2023-04-18T21:56:54.277Z,1.90
2023-04-18T21:59:23.264Z,1.77
2023-04-18T22:01:52.136Z,1.70
2023-04-18T22:04:22.737Z,1.80
2023-04-18T22:06:55.292Z,2.10
2023-04-18T22:09:24.278Z,2.25
2023-04-18T22:11:55.210Z,1.85
2023-04-18T22:14:24.849Z,2.02
2023-04-18T22:16:54.774Z,2.00
2023-04-18T22:19:25.144Z,1.95
2023-04-18T22:21:54.031Z,2.42
2023-04-18T22:24:22.669Z,2.67
2023-04-18T22:26:51.284Z,2.22
2023-04-18T22:29:20.379Z,2.00
2023-04-18T22:31:49.017Z,1.95
2023-04-18T22:34:17.713Z,2.05
2023-04-18T22:36:47.282Z,2.20
2023-04-18T22:39:16.010Z,2.10
2023-04-18T22:41:44.784Z,2.00
2023-04-18T22:44:15.584Z,2.05
2023-04-18T22:46:46.870Z,2.00
2023-04-18T22:49:17.505Z,2.00
2023-04-18T22:51:46.218Z,1.85
2023-04-18T22:54:15.262Z,2.30
2023-04-18T22:56:44.714Z,1.72
2023-04-18T22:59:14.363Z,2.12
2023-04-18T23:01:43.110Z,2.27
2023-04-18T23:04:13.272Z,2.15
2023-04-18T23:06:42.792Z,2.12
2023-04-18T23:09:13.131Z,1.80
2023-04-18T23:11:41.718Z,2.25
2023-04-18T23:14:10.280Z,1.95
2023-04-18T23:16:38.884Z,2.20
2023-04-18T23:19:07.698Z,2.22
2023-04-18T23:21:36.696Z,2.08
2023-04-18T23:24:07.675Z,2.62
2023-04-18T23:26:36.521Z,2.40
2023-04-18T23:29:06.519Z,1.95
2023-04-18T23:31:36.374Z,2.27
2023-04-18T23:34:05.192Z,2.12
2023-04-18T23:36:34.235Z,2.00
2023-04-18T23:39:04.126Z,2.00
2023-04-18T23:41:32.879Z,2.42
2023-04-18T23:44:01.769Z,1.90
2023-04-18T23:46:30.776Z,1.87
2023-04-18T23:48:59.773Z,2.00
2023-04-18T23:51:28.306Z,2.08
2023-04-18T23:53:56.916Z,2.20
2023-04-18T23:56:26.015Z,1.95
2023-04-18T23:58:54.819Z,2.00
